Time;durP1;ratioP1;P1;durP2;ratioP2;P2;SDS_P1;SDS_P2;PMS_P1;PMS_P2;Temp;Humidity;BMP_temperature;BMP_pressure;BME280_temperature;BME280_humidity;BME280_pressure;Samples;Min_cycle;Max_cycle;Signal;HPM_P1;HPM_P2
2021/01/10 00:00:32;;;;;;;19.88;7.30;;;3.00;99.90;;;2.80;99.35;102498.09;5013718;28;20025;-75
2021/01/10 00:02:58;;;;;;;11.95;6.47;;;3.20;99.90;;;2.86;98.92;102497.66;5015702;28;20053;-73
2021/01/10 00:05:30;;;;;;;14.38;6.15;;;3.20;99.90;;;2.87;99.12;102493.13;5014494;28;20048;-69
2021/01/10 00:07:57;;;;;;;18.67;7.28;;;3.20;99.90;;;2.87;99.24;102503.88;5048617;28;20116;-70
2021/01/10 00:10:25;;;;;;;16.40;6.78;;;3.30;99.90;;;2.86;99.42;102500.34;5032443;28;20056;-70
2021/01/10 00:12:50;;;;;;;17.60;8.00;;;3.30;99.90;;;2.82;99.09;102509.56;5028928;28;20081;-74
2021/01/10 00:15:18;;;;;;;18.00;7.93;;;3.30;99.90;;;2.79;98.97;102501.75;5010720;28;20064;-71
2021/01/10 00:17:48;;;;;;;15.70;6.82;;;3.20;99.90;;;2.71;99.06;102497.91;5047939;28;20443;-70
2021/01/10 00:20:17;;;;;;;18.55;7.57;;;3.20;99.90;;;2.74;98.14;102497.66;5036395;28;20037;-71
2021/01/10 00:22:43;;;;;;;17.05;6.13;;;3.10;99.90;;;2.51;98.45;102497.44;5047383;28;20052;-73
2021/01/10 00:25:12;;;;;;;19.20;6.60;;;3.00;99.90;;;2.40;98.82;102500.03;5015096;28;20049;-75
2021/01/10 00:27:40;;;;;;;11.60;5.88;;;2.90;99.90;;;2.29;98.99;102491.84;5048069;28;20038;-72
2021/01/10 00:30:10;;;;;;;12.05;5.90;;;2.80;99.90;;;2.18;99.26;102505.16;5046650;28;20585;-75
2021/01/10 00:32:36;;;;;;;12.63;4.45;;;2.70;99.90;;;2.09;99.50;102508.50;5046235;28;20024;-74
2021/01/10 00:35:07;;;;;;;8.98;3.40;;;2.60;99.90;;;2.04;99.18;102505.25;5029865;28;20033;-73
2021/01/10 00:37:33;;;;;;;6.15;3.28;;;2.60;99.90;;;2.00;99.34;102501.06;5029179;28;20045;-74
2021/01/10 00:39:59;;;;;;;9.88;2.65;;;2.50;99.90;;;2.00;99.32;102495.69;5046257;28;20034;-70
2021/01/10 00:42:24;;;;;;;9.27;2.63;;;2.40;99.90;;;2.03;99.33;102496.31;5047513;28;20049;-69
2021/01/10 00:44:50;;;;;;;5.40;3.10;;;2.40;99.90;;;2.00;99.54;102495.69;5031245;28;20029;-71
2021/01/10 00:47:19;;;;;;;10.50;3.72;;;2.40;99.90;;;1.99;99.65;102496.66;5030455;28;20046;-74
2021/01/10 00:49:46;;;;;;;9.73;2.75;;;2.40;99.90;;;2.04;99.48;102486.44;5012166;28;20038;-72
2021/01/10 00:52:12;;;;;;;7.80;2.03;;;2.40;99.90;;;2.11;99.69;102487.75;5029834;28;20438;-70
2021/01/10 00:54:38;;;;;;;5.20;2.25;;;2.40;99.90;;;2.19;99.25;102485.41;5029669;28;20542;-70
2021/01/10 00:57:05;;;;;;;4.32;2.75;;;2.50;99.90;;;2.28;99.40;102491.97;5011295;28;20380;-68
2021/01/10 00:59:31;;;;;;;10.80;1.90;;;2.60;99.90;;;2.38;99.32;102488.53;5030172;28;20043;-72
2021/01/10 01:01:57;;;;;;;13.38;2.30;;;2.60;99.90;;;2.51;99.45;102494.75;5045306;28;20037;-75
2021/01/10 01:04:23;;;;;;;6.38;2.47;;;2.80;99.90;;;2.61;98.92;102480.66;5012800;28;20155;-71
2021/01/10 01:06:50;;;;;;;9.25;3.20;;;2.90;99.90;;;2.72;98.78;102488.84;5031092;28;20033;-79
2021/01/10 01:09:16;;;;;;;9.15;3.03;;;3.00;99.90;;;2.84;98.74;102487.97;5014721;28;20167;-78
2021/01/10 01:11:42;;;;;;;7.85;2.53;;;3.10;99.90;;;2.93;98.83;102488.16;5031445;28;20113;-69
2021/01/10 01:14:11;;;;;;;9.68;3.75;;;3.20;99.90;;;3.03;98.17;102493.75;5031028;28;20034;-75
2021/01/10 01:16:39;;;;;;;4.10;2.05;;;3.30;99.90;;;3.24;97.38;102492.19;5019423;28;20079;-71
2021/01/10 01:19:07;;;;;;;3.40;2.13;;;3.30;99.90;;;3.24;96.84;102492.19;5022668;28;20053;-71
2021/01/10 01:21:33;;;;;;;3.70;1.25;;;3.40;99.90;;;3.36;96.95;102494.94;5029191;28;20033;-71
2021/01/10 01:23:59;;;;;;;5.22;1.30;;;3.50;99.90;;;3.49;96.90;102495.78;5012296;28;20038;-73
2021/01/10 01:26:25;;;;;;;4.35;1.50;;;3.60;99.90;;;3.49;96.66;102495.78;5031123;28;20037;-74
2021/01/10 01:28:53;;;;;;;3.90;1.27;;;3.70;99.90;;;3.59;96.59;102492.28;5011919;28;20056;-75
2021/01/10 01:31:24;;;;;;;8.05;1.50;;;3.80;99.90;;;3.63;96.63;102492.88;5029559;28;20029;-73
2021/01/10 01:33:52;;;;;;;3.30;0.90;;;3.80;99.90;;;3.65;96.46;102490.94;5027597;28;20050;-74
2021/01/10 01:36:24;;;;;;;4.53;1.48;;;3.90;99.90;;;3.63;96.38;102490.19;5030079;28;20056;-76
2021/01/10 01:38:52;;;;;;;5.70;1.50;;;4.00;99.90;;;3.63;95.99;102487.50;5011724;28;20065;-79
2021/01/10 01:41:18;;;;;;;4.53;0.77;;;3.90;99.90;;;3.55;95.95;102488.09;5014324;28;20396;-77
2021/01/10 01:43:45;;;;;;;4.30;1.05;;;3.90;99.90;;;3.47;95.78;102486.94;5045455;28;20037;-76
2021/01/10 01:46:28;;;;;;;2.15;1.08;;;3.90;99.90;;;3.43;96.15;102482.75;5029853;28;20087;-79
2021/01/10 01:48:56;;;;;;;8.65;1.85;;;3.90;99.90;;;3.46;95.84;102479.84;5017521;28;20045;-79
2021/01/10 01:51:22;;;;;;;3.42;1.25;;;3.80;99.90;;;3.46;95.85;102479.84;5028960;28;20025;-79
2021/01/10 01:53:48;;;;;;;4.65;0.75;;;3.80;99.90;;;3.36;95.56;102476.97;5030896;28;20047;-77
2021/01/10 01:56:15;;;;;;;2.75;0.88;;;3.80;99.90;;;3.46;94.47;102485.22;5029143;28;20069;-78
2021/01/10 01:59:03;;;;;;;9.52;1.23;;;3.70;99.90;;;3.57;93.27;102479.91;5043402;28;20036;-78
2021/01/10 02:01:32;;;;;;;1.17;0.65;;;3.70;99.90;;;3.52;92.74;102476.69;5029858;28;20039;-80
2021/01/10 02:04:28;;;;;;;5.03;0.95;;;3.60;99.90;;;3.26;92.71;102468.72;5012887;28;20144;-78
2021/01/10 02:07:27;;;;;;;4.32;0.90;;;3.50;99.90;;;3.23;92.78;102468.09;5027064;28;20387;-81
2021/01/10 02:10:09;;;;;;;5.20;0.85;;;3.50;99.90;;;3.22;92.44;102467.22;5011610;28;20038;-75
2021/01/10 02:12:48;;;;;;;3.33;1.08;;;3.40;99.90;;;3.08;92.71;102470.06;5027377;28;20447;-77
2021/01/10 02:15:16;;;;;;;5.22;0.90;;;3.40;99.90;;;3.25;91.55;102472.38;5028439;28;20107;-78
2021/01/10 02:17:49;;;;;;;4.35;1.13;;;3.30;99.90;;;3.15;91.95;102463.28;5029276;28;20042;-79
2021/01/10 02:20:20;;;;;;;5.25;0.93;;;3.30;99.90;;;3.15;91.54;102460.59;5044526;28;20041;-78
2021/01/10 02:22:50;;;;;;;3.60;1.20;;;3.30;99.90;;;3.03;92.40;102466.84;5027138;28;20124;-80
2021/01/10 02:25:16;;;;;;;3.13;0.80;;;3.30;99.90;;;2.95;92.87;102463.84;5028880;28;20037;-79
2021/01/10 02:27:44;;;;;;;1.15;0.57;;;3.30;99.90;;;2.95;92.67;102466.53;5029458;28;20034;-79
2021/01/10 02:30:12;;;;;;;3.63;0.90;;;3.30;99.90;;;2.91;92.80;102467.75;5045023;28;20039;-79
2021/01/10 02:32:44;;;;;;;4.07;0.68;;;3.30;99.90;;;2.86;92.99;102464.50;5025397;28;20030;-76
2021/01/10 02:35:11;;;;;;;2.67;0.70;;;3.20;99.90;;;2.87;93.24;102460.84;5029002;28;20040;-73
2021/01/10 02:38:08;;;;;;;6.30;1.38;;;3.20;99.90;;;2.92;92.68;102447.94;5029835;28;20091;-76
2021/01/10 02:40:58;;;;;;;3.00;0.93;;;3.20;99.90;;;2.99;93.17;102456.41;5030071;28;20052;-76
2021/01/10 02:43:28;;;;;;;2.80;0.77;;;3.20;99.90;;;3.00;93.13;102459.00;5029627;28;20496;-70
2021/01/10 02:46:00;;;;;;;2.83;0.63;;;3.30;99.90;;;3.06;92.88;102455.00;5017251;28;20025;-78
2021/01/10 02:48:26;;;;;;;7.45;1.40;;;3.30;99.90;;;3.19;92.37;102448.59;5015153;28;20065;-76
2021/01/10 02:50:51;;;;;;;3.35;1.02;;;3.30;99.90;;;3.12;92.48;102444.66;4999600;28;20025;-77
2021/01/10 02:53:17;;;;;;;2.95;0.85;;;3.30;99.90;;;3.24;92.76;102449.13;5003818;28;20505;-77
2021/01/10 02:55:43;;;;;;;5.43;0.73;;;3.40;99.90;;;3.19;92.51;102445.06;5031676;28;20032;-78
2021/01/10 02:58:19;;;;;;;4.40;0.95;;;3.40;99.90;;;3.20;92.53;102450.31;5000132;28;20124;-77
2021/01/10 03:00:47;;;;;;;1.90;0.60;;;3.50;99.90;;;3.23;92.38;102451.94;5030799;28;20476;-77
2021/01/10 03:03:14;;;;;;;2.78;1.23;;;3.50;99.90;;;3.29;92.17;102444.25;5031589;28;20061;-76
2021/01/10 03:05:41;;;;;;;6.25;1.45;;;3.60;99.90;;;3.32;92.05;102440.50;5032025;28;20044;-76
2021/01/10 03:08:08;;;;;;;1.60;0.50;;;3.60;99.90;;;3.31;91.77;102432.53;5015925;28;20038;-76
2021/01/10 03:10:35;;;;;;;1.20;0.70;;;3.60;99.90;;;3.33;92.31;102441.34;5014558;28;20033;-75
2021/01/10 03:13:01;;;;;;;3.55;1.00;;;3.60;99.90;;;3.31;91.86;102432.53;5033355;28;20128;-78
2021/01/10 03:15:29;;;;;;;1.45;0.75;;;3.70;99.90;;;3.26;91.89;102431.06;5031957;28;20497;-77
2021/01/10 03:17:55;;;;;;;3.28;0.88;;;3.70;99.90;;;3.32;91.99;102434.25;5032473;28;20037;-72
2021/01/10 03:20:22;;;;;;;1.45;0.90;;;3.70;99.90;;;3.31;91.67;102427.13;5031262;28;20021;-76
2021/01/10 03:22:50;;;;;;;3.80;1.17;;;3.70;99.90;;;3.40;91.56;102431.81;5015640;28;20033;-78
2021/01/10 03:25:23;;;;;;;1.98;0.80;;;3.70;99.90;;;3.46;91.51;102426.00;5013965;28;20048;-78
2021/01/10 03:27:49;;;;;;;5.80;1.27;;;3.70;99.90;;;3.53;91.29;102438.88;5031557;28;20136;-77
2021/01/10 03:30:18;;;;;;;2.97;1.15;;;3.80;99.90;;;3.61;90.99;102436.44;5015062;28;20109;-77
2021/01/10 03:32:46;;;;;;;7.85;0.80;;;3.90;99.90;;;3.64;90.86;102430.84;5015545;28;20040;-77
2021/01/10 03:35:15;;;;;;;2.65;0.70;;;3.90;99.90;;;3.66;91.06;102411.88;5046580;28;20079;-76
2021/01/10 03:37:41;;;;;;;2.95;1.00;;;4.00;99.90;;;3.68;90.61;102418.03;5032635;28;20087;-77
2021/01/10 03:40:08;;;;;;;0.93;0.50;;;4.00;99.90;;;3.69;91.08;102422.44;5027661;28;20038;-78
2021/01/10 03:42:35;;;;;;;3.00;0.70;;;4.10;99.90;;;3.70;90.82;102426.84;5028053;28;20042;-77
2021/01/10 03:45:01;;;;;;;2.50;0.60;;;4.10;99.90;;;3.72;90.80;102422.22;5009887;28;20029;-75
2021/01/10 03:47:26;;;;;;;5.93;1.15;;;4.10;99.90;;;3.75;90.45;102416.56;5025452;28;20049;-77
2021/01/10 03:49:52;;;;;;;1.33;0.60;;;4.10;99.90;;;3.74;90.48;102417.53;5012831;28;20038;-77
2021/01/10 03:52:18;;;;;;;4.07;0.85;;;4.10;99.90;;;3.73;90.55;102429.28;5032876;28;20038;-74
2021/01/10 03:54:44;;;;;;;4.38;1.20;;;4.10;99.90;;;3.74;90.13;102420.22;5029668;28;20070;-78
2021/01/10 03:57:10;;;;;;;2.88;0.68;;;4.10;99.90;;;3.78;89.89;102427.09;5032251;28;20073;-78
2021/01/10 03:59:35;;;;;;;1.63;0.90;;;4.10;99.90;;;3.78;90.25;102421.72;5048071;28;20380;-78
2021/01/10 04:02:01;;;;;;;2.70;1.45;;;4.10;99.90;;;3.78;90.00;102427.09;5033154;28;20381;-78
2021/01/10 04:04:27;;;;;;;3.92;0.70;;;4.20;99.90;;;3.78;89.96;102419.03;5029555;28;20052;-78
2021/01/10 04:06:53;;;;;;;2.13;1.05;;;4.10;99.90;;;3.80;89.80;102414.38;5013693;28;20128;-77
2021/01/10 04:09:18;;;;;;;3.33;0.75;;;4.20;99.90;;;3.81;90.20;102420.63;5029472;28;20526;-77
2021/01/10 04:11:44;;;;;;;3.42;0.80;;;4.20;99.90;;;3.84;89.87;102415.84;5029452;28;20874;-78
2021/01/10 04:14:10;;;;;;;3.63;0.65;;;4.20;99.90;;;3.86;89.99;102413.91;5046527;28;20120;-76
2021/01/10 04:16:36;;;;;;;2.42;1.17;;;4.20;99.90;;;3.88;89.65;102417.34;5029631;28;20033;-77
2021/01/10 04:19:02;;;;;;;4.30;0.90;;;4.20;99.90;;;3.94;89.46;102414.19;5013964;28;20525;-78
2021/01/10 04:21:36;;;;;;;4.65;0.55;;;4.30;99.90;;;4.07;89.34;102413.22;5028589;28;20065;-77
2021/01/10 04:24:03;;;;;;;1.60;0.63;;;4.30;99.90;;;4.00;89.05;102408.31;5029338;28;20034;-77
2021/01/10 04:26:36;;;;;;;8.60;1.15;;;4.30;99.90;;;4.03;88.81;102415.31;5029065;28;20043;-76
2021/01/10 04:29:02;;;;;;;7.45;1.98;;;4.30;99.90;;;4.01;88.87;102412.72;5029947;28;20065;-77
2021/01/10 04:31:27;;;;;;;2.88;0.63;;;4.40;99.90;;;4.00;89.14;102405.63;5014546;28;20076;-80
2021/01/10 04:33:53;;;;;;;4.93;1.17;;;4.40;99.90;;;4.06;88.84;102408.81;4997543;28;20045;-78
2021/01/10 04:36:19;;;;;;;5.70;0.93;;;4.40;99.90;;;4.08;88.48;102410.41;5012629;28;20054;-70
2021/01/10 04:38:44;;;;;;;1.40;0.90;;;4.40;99.90;;;4.08;88.63;102414.94;5013899;28;20467;-72
2021/01/10 04:41:12;;;;;;;0.88;0.65;;;4.40;99.90;;;4.10;88.36;102399.50;5047619;28;20068;-74
2021/01/10 04:43:38;;;;;;;1.33;0.60;;;4.40;99.90;;;4.11;88.42;102407.47;5012649;28;20439;-75
2021/01/10 04:46:05;;;;;;;2.03;0.60;;;4.40;99.90;;;4.09;87.89;102400.47;5029862;28;20499;-73
2021/01/10 04:48:31;;;;;;;4.07;0.55;;;4.40;99.90;;;4.09;88.44;102397.78;5029350;28;20056;-71
2021/01/10 04:50:59;;;;;;;1.50;0.60;;;4.40;99.90;;;4.09;88.40;102409.41;5045432;28;20471;-69
2021/01/10 04:53:27;;;;;;;2.22;0.90;;;4.50;99.90;;;4.10;88.56;102399.50;5027083;28;20045;-74
2021/01/10 04:55:57;;;;;;;4.10;0.57;;;4.50;99.90;;;4.09;88.62;102397.78;5028600;28;20116;-69
2021/01/10 04:58:28;;;;;;;2.65;0.73;;;4.40;99.90;;;4.09;88.19;102397.78;5028146;28;20060;-77
2021/01/10 05:00:57;;;;;;;3.88;0.57;;;4.50;99.90;;;4.16;88.82;102390.97;5046661;28;20041;-70
2021/01/10 05:03:25;;;;;;;1.33;0.70;;;4.50;99.90;;;4.11;88.77;102391.31;5028638;28;20037;-69
2021/01/10 05:05:51;;;;;;;6.03;0.98;;;4.50;99.90;;;4.13;88.51;102385.81;5028352;28;20088;-74
2021/01/10 05:08:17;;;;;;;2.80;0.85;;;4.50;99.90;;;4.08;88.84;102379.91;5045943;28;20408;-74
2021/01/10 05:10:42;;;;;;;1.75;1.05;;;4.50;99.90;;;3.95;88.83;102382.72;5022484;28;20037;-72
2021/01/10 05:13:08;;;;;;;2.25;0.80;;;4.40;99.90;;;3.95;88.54;102363.88;5031601;28;20033;-74
2021/01/10 05:15:36;;;;;;;5.05;0.90;;;4.40;99.90;;;3.92;88.88;102375.72;4995145;28;20129;-73
2021/01/10 05:18:03;;;;;;;0.73;0.60;;;4.30;99.90;;;3.95;88.99;102378.16;5030494;28;20071;-74
2021/01/10 05:20:33;;;;;;;6.57;1.15;;;4.40;99.90;;;3.97;88.86;102378.06;5046137;28;20032;-74
2021/01/10 05:23:00;;;;;;;7.55;1.23;;;4.40;99.90;;;3.94;88.80;102363.00;5014374;28;20479;-74
2021/01/10 05:25:27;;;;;;;5.15;0.82;;;4.40;99.90;;;3.99;88.85;102368.88;5007119;28;20033;-76
2021/01/10 05:27:55;;;;;;;4.68;0.90;;;4.40;99.90;;;4.03;88.51;102361.41;5013609;28;20091;-74
2021/01/10 05:30:33;;;;;;;4.32;0.90;;;4.40;99.90;;;4.12;88.46;102359.84;5020430;28;20018;-76
2021/01/10 05:33:06;;;;;;;2.28;1.20;;;4.40;99.90;;;4.06;88.56;102354.94;4997451;28;20092;-78
2021/01/10 05:35:55;;;;;;;5.53;1.75;;;4.40;99.90;;;3.97;88.82;102357.34;5011331;28;20052;-77
2021/01/10 05:38:33;;;;;;;4.75;1.00;;;4.40;99.90;;;3.93;88.63;102352.34;5029569;28;20500;-77
2021/01/10 05:41:01;;;;;;;4.78;1.00;;;4.40;99.90;;;3.77;89.11;102349.13;5011403;28;20033;-76
2021/01/10 05:43:28;;;;;;;2.97;1.23;;;4.30;99.90;;;3.71;89.08;102361.25;5029521;28;20535;-75
2021/01/10 05:45:55;;;;;;;4.68;1.48;;;4.20;99.90;;;3.60;89.52;102358.53;5026434;28;20584;-74
2021/01/10 05:48:21;;;;;;;4.13;1.00;;;4.10;99.90;;;3.65;89.20;102350.94;5009318;28;20057;-74
2021/01/10 05:50:51;;;;;;;4.47;0.95;;;4.00;99.90;;;3.50;89.77;102349.44;5011890;28;20120;-71
2021/01/10 05:53:18;;;;;;;2.83;0.75;;;4.00;99.90;;;3.39;90.00;102354.75;5045339;28;20047;-76
2021/01/10 05:56:02;;;;;;;2.60;0.82;;;3.90;99.90;;;3.39;90.10;102344.00;5046128;28;20033;-74
2021/01/10 05:58:30;;;;;;;6.22;1.25;;;3.90;99.90;;;3.48;90.20;102349.56;5013158;28;20049;-75
2021/01/10 06:01:10;;;;;;;5.03;0.98;;;3.80;99.90;;;3.56;90.20;102352.50;5043752;28;20049;-74
2021/01/10 06:03:37;;;;;;;5.43;0.98;;;3.90;99.90;;;3.44;91.29;102353.44;5027612;28;20038;-75
2021/01/10 06:06:05;;;;;;;1.70;0.70;;;3.90;99.90;;;3.59;90.99;102351.41;5027735;28;20510;-68
2021/01/10 06:08:38;;;;;;;1.15;0.90;;;4.00;99.90;;;3.71;90.57;102355.00;5045488;28;20040;-76
2021/01/10 06:11:27;;;;;;;3.00;0.60;;;4.10;99.90;;;3.76;90.19;102348.25;5013064;28;20022;-77
2021/01/10 06:13:58;;;;;;;4.80;0.73;;;4.10;99.90;;;3.89;89.94;102348.16;5025227;28;20399;-73
2021/01/10 06:16:27;;;;;;;6.53;1.38;;;4.10;99.90;;;3.76;90.35;102350.97;5027846;28;20029;-76
2021/01/10 06:19:15;;;;;;;3.38;1.05;;;4.10;99.90;;;3.83;89.94;102341.44;5027424;28;20040;-71
2021/01/10 06:21:47;;;;;;;4.97;1.48;;;4.20;99.90;;;3.85;89.61;102358.31;5027343;28;20029;-76
2021/01/10 06:24:19;;;;;;;2.60;1.50;;;4.20;99.90;;;3.77;90.15;102357.19;5026660;28;20057;-79
2021/01/10 06:26:53;;;;;;;7.45;2.08;;;4.10;99.90;;;3.60;91.78;102363.91;5029212;28;20064;-77
2021/01/10 06:29:23;;;;;;;5.63;2.30;;;4.00;99.90;;;3.46;92.49;102362.25;5028050;28;20683;-75
2021/01/10 06:31:51;;;;;;;4.75;3.00;;;4.00;99.90;;;3.56;92.32;102365.09;5028098;28;20108;-69
2021/01/10 06:34:20;;;;;;;8.93;2.60;;;3.90;99.90;;;3.37;92.69;102372.88;5011043;28;20041;-71
2021/01/10 06:36:46;;;;;;;7.53;3.28;;;3.80;99.90;;;3.22;93.48;102375.75;5028126;28;20499;-72
2021/01/10 06:39:15;;;;;;;7.25;3.60;;;3.80;99.90;;;3.45;92.69;102373.16;5028452;28;20038;-73
2021/01/10 06:42:07;;;;;;;5.38;3.00;;;3.60;99.90;;;3.42;92.59;102376.06;5029422;28;20022;-71
2021/01/10 06:44:41;;;;;;;5.03;2.70;;;3.50;99.90;;;3.36;93.22;102371.16;5021818;28;20033;-72
2021/01/10 06:47:16;;;;;;;3.05;2.20;;;3.50;99.90;;;3.30;93.38;102377.84;5012629;28;20458;-73
2021/01/10 06:49:43;;;;;;;5.70;3.10;;;3.40;99.90;;;3.14;94.53;102378.16;5044385;28;20038;-74
2021/01/10 06:52:10;;;;;;;5.32;2.88;;;3.40;99.90;;;3.03;95.06;102386.16;5030186;28;20029;-77
2021/01/10 06:54:48;;;;;;;6.60;3.80;;;3.40;99.90;;;3.00;96.01;102381.00;5028058;28;20034;-74
2021/01/10 06:57:14;;;;;;;8.48;3.22;;;3.30;99.90;;;3.07;95.80;102371.50;5021469;28;20025;-77
2021/01/10 07:00:01;;;;;;;5.63;3.00;;;3.30;99.90;;;3.09;95.47;102387.53;5026200;28;20034;-76
2021/01/10 07:02:27;;;;;;;5.25;2.88;;;3.30;99.90;;;3.06;95.93;102385.91;5015107;28;20124;-78
2021/01/10 07:04:54;;;;;;;7.55;3.35;;;3.30;99.90;;;3.03;95.63;102386.16;5044561;28;20053;-74
2021/01/10 07:07:31;;;;;;;9.60;3.15;;;3.20;99.90;;;3.01;95.60;102385.41;5028889;28;20064;-77
2021/01/10 07:09:57;;;;;;;5.15;3.50;;;3.20;99.90;;;2.91;95.87;102389.75;5030434;28;20111;-77
2021/01/10 07:12:23;;;;;;;4.70;2.85;;;3.20;99.90;;;3.15;95.20;102395.16;5030165;28;20029;-77
2021/01/10 07:14:49;;;;;;;6.80;3.47;;;3.20;99.90;;;3.00;95.82;102391.75;5047259;28;20091;-77
2021/01/10 07:17:18;;;;;;;5.50;3.50;;;3.20;99.90;;;2.96;97.10;102397.47;5030073;28;20049;-72
2021/01/10 07:19:47;;;;;;;4.15;2.80;;;3.20;99.90;;;3.18;96.30;102398.47;5028196;28;20199;-72
2021/01/10 07:22:31;;;;;;;4.78;2.95;;;3.30;99.90;;;3.17;96.53;102391.34;5041234;28;20034;-74
2021/01/10 07:24:57;;;;;;;5.55;2.95;;;3.40;99.90;;;3.36;96.08;102398.06;5014496;28;20391;-76
2021/01/10 07:27:31;;;;;;;4.72;2.47;;;3.50;99.90;;;3.40;96.22;102395.00;5030398;28;20061;-77
2021/01/10 07:29:58;;;;;;;5.68;3.92;;;3.50;99.90;;;3.32;95.95;102385.81;5033170;28;20037;-77
2021/01/10 07:32:36;;;;;;;4.47;2.45;;;3.50;99.90;;;3.26;96.02;102388.00;5047540;28;20046;-78
2021/01/10 07:35:05;;;;;;;6.53;3.00;;;3.50;99.90;;;3.21;95.93;102392.00;5016813;28;20033;-78
2021/01/10 07:37:33;;;;;;;9.68;2.83;;;3.50;99.90;;;3.19;95.70;102392.09;5031246;28;20033;-79
2021/01/10 07:40:05;;;;;;;5.75;2.50;;;3.50;99.90;;;3.07;95.74;102390.31;5013466;28;20045;-77
2021/01/10 07:42:34;;;;;;;6.18;2.47;;;3.40;99.90;;;2.91;96.22;102395.13;5048500;28;20041;-77
2021/01/10 07:45:17;;;;;;;10.52;3.38;;;3.30;99.90;;;2.81;95.78;102391.41;5033168;28;20033;-78
2021/01/10 07:47:49;;;;;;;5.88;3.60;;;3.30;99.90;;;2.64;96.59;102389.94;5000683;28;20067;-79
2021/01/10 07:50:14;;;;;;;5.28;2.92;;;3.20;99.90;;;2.55;96.88;102388.78;5013558;28;20041;-78
2021/01/10 07:52:46;;;;;;;5.03;3.38;;;3.10;99.90;;;2.52;96.64;102393.50;5025692;28;20029;-77
2021/01/10 07:55:20;;;;;;;5.43;2.97;;;3.10;99.90;;;2.46;96.76;102385.88;5033979;28;20104;-78
2021/01/10 07:57:46;;;;;;;5.47;2.88;;;3.00;99.90;;;2.37;97.06;102382.00;5025103;28;20503;-76
2021/01/10 08:00:14;;;;;;;10.05;2.75;;;2.90;99.90;;;2.33;97.17;102383.22;5026423;28;20483;-79
2021/01/10 08:03:03;;;;;;;3.22;2.67;;;2.90;99.90;;;2.26;97.18;102383.78;5030224;28;20484;-77
2021/01/10 08:05:56;;;;;;;7.45;3.00;;;2.80;99.90;;;2.19;97.96;102386.00;5032616;28;20033;-77
2021/01/10 08:08:39;;;;;;;4.75;2.40;;;2.80;99.90;;;2.24;98.28;102386.56;5033660;28;20124;-77
2021/01/10 08:11:05;;;;;;;5.70;2.90;;;2.70;99.90;;;2.27;98.11;102380.94;5030724;28;20042;-78
2021/01/10 08:13:35;;;;;;;5.60;3.08;;;2.70;99.90;;;2.49;97.56;102381.13;5015395;28;20102;-78
2021/01/10 08:16:02;;;;;;;5.55;2.33;;;2.70;99.90;;;2.45;98.21;102390.41;5025392;28;20559;-74
2021/01/10 08:18:46;;;;;;;3.42;2.58;;;2.80;99.90;;;2.53;97.93;102393.41;5028946;28;20041;-77
2021/01/10 08:21:14;;;;;;;5.78;2.72;;;2.80;99.90;;;2.55;98.24;102391.47;5026137;28;20095;-80
2021/01/10 08:23:44;;;;;;;5.20;3.10;;;2.90;99.90;;;2.64;98.01;102389.06;5032408;28;20060;-78
2021/01/10 08:26:17;;;;;;;5.63;2.65;;;2.90;99.90;;;2.74;98.07;102390.13;5049386;28;20049;-78
2021/01/10 08:28:55;;;;;;;4.53;3.33;;;3.00;99.90;;;2.96;98.38;102394.78;5031959;28;20128;-78
2021/01/10 08:31:30;;;;;;;5.00;2.83;;;3.20;99.90;;;3.45;99.17;102402.75;5013951;28;20419;-78
2021/01/10 08:34:16;;;;;;;11.45;3.72;;;3.50;99.90;;;4.61;98.39;102400.78;5046762;28;20388;-75
2021/01/10 08:36:46;;;;;;;5.28;3.13;;;4.00;99.90;;;6.22;90.19;102397.09;5032036;28;20038;-76
2021/01/10 08:39:15;;;;;;;3.13;2.00;;;4.90;99.90;;;7.71;83.38;102404.31;5046502;28;20476;-75
2021/01/10 08:41:45;;;;;;;6.97;2.58;;;6.00;99.90;;;8.89;76.79;102398.31;5047294;28;20506;-78
2021/01/10 08:44:19;;;;;;;3.38;2.60;;;7.00;99.90;;;9.16;70.61;102402.84;5029936;28;20143;-77
2021/01/10 08:46:47;;;;;;;;;;;7.70;99.90;;;8.81;72.40;102411.75;5014141;28;20034;-74
2021/01/10 08:49:25;;;;;;;4.97;2.35;;;8.00;99.90;;;9.25;71.71;102398.38;5011724;28;19925;-72
2021/01/10 08:51:52;;;;;;;6.90;2.53;;;8.20;99.90;;;10.07;67.03;102403.53;5014639;28;20060;-76
2021/01/10 08:54:19;;;;;;;4.85;2.75;;;8.80;99.90;;;10.38;63.20;102409.41;5030913;28;20044;-71
2021/01/10 08:56:57;;;;;;;3.65;1.98;;;9.20;99.90;;;10.61;60.92;102404.25;5033634;28;20041;-79
2021/01/10 08:59:34;;;;;;;7.25;2.42;;;9.60;99.90;;;10.88;63.52;102407.63;5026983;28;20521;-79
2021/01/10 09:02:07;;;;;;;4.88;2.60;;;9.80;99.90;;;11.98;59.65;102395.56;5014870;28;20048;-76
2021/01/10 09:04:42;;;;;;;3.92;2.50;;;10.50;99.90;;;12.91;53.24;102395.84;5014709;28;20470;-76
2021/01/10 09:07:10;;;;;;;3.42;2.22;;;11.20;98.60;;;13.78;52.18;102402.84;5013218;28;20424;-81
2021/01/10 09:09:57;;;;;;;4.38;2.65;;;11.90;97.20;;;14.40;46.74;102397.19;5029872;28;20037;-82
2021/01/10 09:12:29;;;;;;;4.60;2.28;;;12.60;95.40;;;14.69;44.92;102386.22;5033970;28;20041;-79
2021/01/10 09:15:05;;;;;;;4.97;2.30;;;13.20;92.60;;;14.30;46.80;102402.06;5051614;28;20373;-74
2021/01/10 09:18:02;;;;;;;11.60;2.92;;;13.30;93.00;;;14.55;46.37;102389.84;5038344;28;20021;-81
2021/01/10 09:20:41;;;;;;;7.30;3.42;;;13.30;93.10;;;15.09;43.98;102386.75;5033964;28;20049;-85
2021/01/10 09:23:09;;;;;;;7.50;2.90;;;13.60;91.90;;;15.29;41.68;102396.06;5017892;28;20621;-80
2021/01/10 09:25:35;;;;;;;6.47;2.53;;;13.90;90.30;;;16.00;41.90;102383.28;5017737;28;20037;-83
2021/01/10 09:28:11;;;;;;;3.67;2.50;;;14.30;90.40;;;16.58;39.83;102378.44;5038097;28;20046;-79
2021/01/10 09:30:57;;;;;;;5.18;2.60;;;14.80;88.00;;;16.78;38.29;102378.56;5035723;28;20033;-82
2021/01/10 09:33:26;;;;;;;4.90;2.45;;;15.20;85.70;;;16.89;38.11;102384.34;5035331;28;20030;-82
2021/01/10 09:35:53;;;;;;;4.03;2.28;;;15.50;83.70;;;16.60;38.71;102388.16;5030268;28;20073;-76
2021/01/10 09:38:23;;;;;;;4.72;3.10;;;15.50;83.10;;;15.78;38.71;102395.34;5057243;28;20353;-71
2021/01/10 09:41:05;;;;;;;5.00;2.22;;;15.20;80.60;;;15.08;40.98;102396.00;5027974;28;20041;-73
2021/01/10 09:43:36;;;;;;;6.07;2.15;;;14.70;82.60;;;14.53;41.69;102391.91;5011283;28;20037;-76
2021/01/10 09:46:03;;;;;;;5.72;2.13;;;14.30;83.80;;;14.76;42.36;102391.81;5029284;28;20046;-79
2021/01/10 09:48:30;;;;;;;6.10;2.20;;;14.10;85.70;;;14.52;42.22;102384.72;5031253;28;20046;-76
2021/01/10 09:50:56;;;;;;;4.72;2.45;;;14.00;86.20;;;14.35;43.22;102391.38;5030182;28;20042;-75
2021/01/10 09:53:26;;;;;;;6.18;2.92;;;13.80;87.20;;;14.61;41.57;102391.81;5047419;28;20042;-82
2021/01/10 09:55:52;;;;;;;6.55;3.40;;;13.70;86.50;;;14.80;42.78;102391.22;5027080;28;20037;-69
2021/01/10 09:58:18;;;;;;;4.55;2.72;;;13.80;88.40;;;15.08;41.42;102385.91;4996226;28;20041;-75
2021/01/10 10:01:08;;;;;;;6.78;3.22;;;13.90;87.40;;;14.52;42.08;102387.47;4997617;28;20040;-78
2021/01/10 10:03:36;;;;;;;3.50;2.42;;;13.90;85.80;;;14.17;42.45;102391.72;5031506;28;20110;-78
2021/01/10 10:06:02;;;;;;;3.28;2.80;;;13.80;86.00;;;14.03;42.93;102387.91;5032777;28;20538;-81
2021/01/10 10:08:27;;;;;;;5.40;2.78;;;13.60;86.50;;;14.18;43.14;102388.81;5035476;28;20401;-82
2021/01/10 10:10:53;;;;;;;3.28;2.30;;;13.50;88.10;;;13.47;44.98;102394.69;5001551;28;20176;-83
2021/01/10 10:13:31;;;;;;;3.70;2.58;;;13.30;89.30;;;12.62;46.45;102389.13;5015798;28;20391;-81
2021/01/10 10:15:57;;;;;;;5.43;2.67;;;12.80;90.10;;;11.73;49.08;102375.59;5014338;28;20074;-82
2021/01/10 10:18:28;;;;;;;9.18;3.00;;;12.30;90.80;;;11.32;50.57;102377.41;5049477;28;20060;-80
2021/01/10 10:20:55;;;;;;;8.20;2.70;;;11.80;91.90;;;10.85;52.89;102371.66;5034482;28;20037;-79
2021/01/10 10:23:21;;;;;;;6.28;2.80;;;11.30;93.20;;;10.47;55.27;102376.63;5050263;28;20056;-79
2021/01/10 10:25:49;;;;;;;4.47;2.85;;;10.80;94.90;;;9.84;56.52;102378.69;5019107;28;20041;-84
2021/01/10 10:28:16;;;;;;;6.13;2.95;;;10.30;95.40;;;9.83;57.79;102377.84;5048336;28;20492;-78
2021/01/10 10:30:42;;;;;;;4.35;3.17;;;10.00;96.90;;;9.28;60.03;102389.91;5034291;28;20488;-79
2021/01/10 10:33:09;;;;;;;6.75;3.20;;;9.70;97.50;;;9.10;61.53;102385.31;5037172;28;20586;-84
2021/01/10 10:35:36;;;;;;;6.97;3.13;;;9.50;98.30;;;8.88;61.75;102383.03;5036217;28;20048;-71